createdAt,value
2019-01-22T00:02:10.709Z,30.70
2019-01-22T00:04:38.274Z,29.73
2019-01-22T00:07:05.738Z,29.93
2019-01-22T00:09:33.236Z,30.27
2019-01-22T00:12:00.918Z,32.07
2019-01-22T00:14:28.390Z,28.90
2019-01-22T00:16:55.905Z,32.60
2019-01-22T00:19:23.372Z,30.73
2019-01-22T00:21:50.847Z,33.37
2019-01-22T00:24:18.346Z,32.40
2019-01-22T00:26:46.110Z,31.10
2019-01-22T00:29:13.621Z,29.73
2019-01-22T00:31:41.089Z,29.13
2019-01-22T00:34:08.546Z,29.37
2019-01-22T00:36:36.008Z,30.43
2019-01-22T00:39:05.355Z,31.00
2019-01-22T00:41:33.123Z,30.83
2019-01-22T00:44:00.601Z,32.33
2019-01-22T00:46:28.164Z,31.27
2019-01-22T00:48:55.716Z,33.83
2019-01-22T00:51:23.193Z,31.43
2019-01-22T00:53:50.706Z,31.53
2019-01-22T00:56:18.177Z,34.50
2019-01-22T00:58:45.714Z,31.97
2019-01-22T01:01:13.331Z,32.20
2019-01-22T01:03:40.766Z,32.90
2019-01-22T01:06:08.303Z,31.53
2019-01-22T01:08:35.818Z,31.47
2019-01-22T01:11:03.327Z,31.80
2019-01-22T01:13:30.793Z,33.80
2019-01-22T01:15:58.371Z,30.80
2019-01-22T01:18:25.843Z,32.17
2019-01-22T01:20:53.319Z,31.10
2019-01-22T01:23:20.819Z,30.17
2019-01-22T01:25:48.304Z,33.27
2019-01-22T01:28:16.172Z,32.67
2019-01-22T01:30:43.762Z,29.43
2019-01-22T01:33:11.297Z,32.30
2019-01-22T01:35:38.763Z,33.00
2019-01-22T01:38:06.278Z,32.13
2019-01-22T01:40:33.760Z,30.50
2019-01-22T01:43:01.229Z,31.37
2019-01-22T01:45:28.732Z,32.60
2019-01-22T01:47:56.205Z,31.80
2019-01-22T01:50:23.705Z,31.57
2019-01-22T01:52:51.270Z,32.83
2019-01-22T01:55:18.818Z,32.50
2019-01-22T01:57:46.305Z,32.20
2019-01-22T02:00:15.475Z,33.40
2019-01-22T02:02:42.968Z,33.10
2019-01-22T02:05:10.518Z,31.20
2019-01-22T02:07:37.988Z,31.20
2019-01-22T02:10:06.962Z,31.47
2019-01-22T02:12:35.975Z,34.07
2019-01-22T02:15:05.157Z,33.27
2019-01-22T02:17:34.115Z,31.40
2019-01-22T02:20:03.108Z,33.35
2019-01-22T02:22:34.967Z,35.43
2019-01-22T02:25:03.952Z,35.33
2019-01-22T02:27:33.301Z,33.37
2019-01-22T02:30:02.251Z,33.20
2019-01-22T02:32:31.300Z,31.10
2019-01-22T02:35:00.243Z,32.90
2019-01-22T02:37:29.183Z,33.10
2019-01-22T02:39:58.225Z,31.23
2019-01-22T02:42:30.023Z,32.50
2019-01-22T02:45:01.959Z,33.47
2019-01-22T02:47:33.675Z,32.40
2019-01-22T02:50:02.623Z,30.70
2019-01-22T02:52:31.588Z,35.67
2019-01-22T02:55:00.618Z,31.73
2019-01-22T02:57:44.750Z,32.57
2019-01-22T03:00:16.412Z,32.10
2019-01-22T03:02:51.576Z,31.70
2019-01-22T03:05:20.526Z,32.13
2019-01-22T03:07:52.185Z,31.10
2019-01-22T03:10:24.289Z,34.03
2019-01-22T03:12:59.164Z,31.60
2019-01-22T03:15:28.116Z,33.47
2019-01-22T03:17:57.057Z,33.77
2019-01-22T03:20:26.099Z,32.27
2019-01-22T03:22:58.061Z,34.15
2019-01-22T03:25:27.008Z,32.53
2019-01-22T03:27:56.052Z,35.17
2019-01-22T03:30:41.504Z,31.03
2019-01-22T03:33:13.228Z,32.70
2019-01-22T03:35:42.168Z,35.17
2019-01-22T03:38:11.110Z,34.33
2019-01-22T03:40:55.194Z,31.60
2019-01-22T03:43:36.418Z,31.23
2019-01-22T03:46:20.369Z,32.20
2019-01-22T03:48:49.312Z,33.47
2019-01-22T03:51:18.255Z,33.20
2019-01-22T03:54:03.616Z,32.33
2019-01-22T03:56:38.560Z,31.23
2019-01-22T03:59:06.018Z,32.40
2019-01-22T04:01:33.604Z,32.33
2019-01-22T04:04:01.382Z,32.40
2019-01-22T04:06:28.852Z,33.30
2019-01-22T04:08:57.492Z,30.97
2019-01-22T04:11:25.654Z,32.80
2019-01-22T04:13:53.136Z,32.98
2019-01-22T04:16:20.642Z,34.10
2019-01-22T04:18:48.528Z,33.03
2019-01-22T04:21:17.137Z,34.92
2019-01-22T04:23:46.065Z,31.83
2019-01-22T04:26:15.041Z,30.93
2019-01-22T04:28:47.098Z,30.93
2019-01-22T04:31:19.123Z,30.30
2019-01-22T04:34:00.351Z,31.83
2019-01-22T04:36:45.762Z,31.20
2019-01-22T04:39:33.698Z,32.07
2019-01-22T04:42:19.218Z,30.67
2019-01-22T04:44:51.164Z,31.30
2019-01-22T04:47:38.399Z,30.73
2019-01-22T04:50:11.971Z,31.80
2019-01-22T04:52:40.912Z,30.50
2019-01-22T04:55:15.580Z,29.33
2019-01-22T04:57:44.683Z,28.07
2019-01-22T05:00:19.546Z,29.97
2019-01-22T05:02:54.775Z,27.70
2019-01-22T05:05:40.144Z,27.63
2019-01-22T05:08:27.470Z,26.33
2019-01-22T05:11:08.368Z,25.07
2019-01-22T05:13:37.352Z,25.37
2019-01-22T05:16:06.283Z,21.73
2019-01-22T05:18:35.235Z,22.63
2019-01-22T05:21:22.718Z,23.40
2019-01-22T05:23:51.673Z,22.03
2019-01-22T05:26:20.651Z,20.53
2019-01-22T05:28:52.514Z,21.70
2019-01-22T05:31:21.464Z,22.43
2019-01-22T05:33:59.353Z,21.27
2019-01-22T05:36:28.298Z,22.40
2019-01-22T05:39:04.597Z,23.00
2019-01-22T05:41:33.531Z,21.20
2019-01-22T05:44:05.176Z,24.13
2019-01-22T05:46:40.148Z,22.00
2019-01-22T05:49:24.076Z,20.27
2019-01-22T05:51:53.068Z,19.25
2019-01-22T05:54:25.260Z,19.90
2019-01-22T05:56:52.624Z,20.43
2019-01-22T05:59:21.580Z,21.20
2019-01-22T06:01:50.549Z,19.75
2019-01-22T06:04:36.259Z,22.05
2019-01-22T06:07:21.856Z,19.20
2019-01-22T06:10:07.454Z,19.23
2019-01-22T06:12:39.539Z,19.62
2019-01-22T06:15:08.502Z,21.80
2019-01-22T06:17:46.265Z,22.10
2019-01-22T06:20:24.116Z,22.23
2019-01-22T06:23:05.143Z,21.87
2019-01-22T06:25:34.069Z,22.02
2019-01-22T06:28:03.095Z,22.22
2019-01-22T06:30:34.772Z,21.20
2019-01-22T06:33:06.507Z,20.83
2019-01-22T06:35:35.530Z,21.30
2019-01-22T06:38:07.141Z,21.40
2019-01-22T06:40:42.028Z,22.70
2019-01-22T06:43:23.139Z,22.40
2019-01-22T06:45:52.113Z,21.52
2019-01-22T06:48:36.442Z,24.20
2019-01-22T06:51:14.373Z,21.27
2019-01-22T06:53:43.912Z,21.12
2019-01-22T06:56:18.611Z,22.33
2019-01-22T06:58:56.300Z,20.60
2019-01-22T07:01:41.728Z,21.67
2019-01-22T07:04:10.682Z,23.50
2019-01-22T07:06:39.629Z,19.10
2019-01-22T07:09:08.685Z,20.23
2019-01-22T07:11:43.416Z,20.37
2019-01-22T07:14:12.390Z,21.47
2019-01-22T07:16:47.225Z,19.77
2019-01-22T07:19:22.103Z,21.10
2019-01-22T07:22:07.512Z,21.50
2019-01-22T07:24:36.482Z,20.37
2019-01-22T07:27:11.808Z,21.10
2019-01-22T07:29:40.771Z,20.27
2019-01-22T07:32:12.702Z,19.90
2019-01-22T07:34:47.697Z,21.67
2019-01-22T07:37:16.761Z,19.23
2019-01-22T07:39:51.521Z,20.60
2019-01-22T07:42:29.346Z,20.17
2019-01-22T07:45:00.983Z,20.10
2019-01-22T07:47:32.667Z,21.50
2019-01-22T07:50:01.610Z,22.42
2019-01-22T07:52:36.565Z,21.40
2019-01-22T07:55:08.440Z,21.33
2019-01-22T07:57:40.336Z,19.83
2019-01-22T08:00:12.785Z,20.23
2019-01-22T08:02:47.645Z,20.75
2019-01-22T08:05:36.161Z,21.90
2019-01-22T08:08:09.733Z,20.10
2019-01-22T08:10:38.697Z,20.17
2019-01-22T08:13:24.093Z,20.80
2019-01-22T08:15:55.690Z,19.77
2019-01-22T08:18:33.877Z,22.23
2019-01-22T08:21:05.803Z,20.03
2019-01-22T08:23:49.773Z,20.37
2019-01-22T08:26:18.710Z,19.70
2019-01-22T08:29:02.711Z,20.10
2019-01-22T08:31:34.436Z,20.10
2019-01-22T08:34:03.379Z,22.37
2019-01-22T08:36:32.345Z,19.30
2019-01-22T08:39:10.048Z,22.30
2019-01-22T08:41:53.800Z,20.65
2019-01-22T08:44:31.744Z,20.70
2019-01-22T08:47:03.752Z,21.73
2019-01-22T08:49:48.021Z,22.42
2019-01-22T08:52:29.155Z,22.03
2019-01-22T08:55:07.976Z,24.13
2019-01-22T08:57:46.638Z,23.83
2019-01-22T09:00:24.797Z,21.80
2019-01-22T09:02:59.989Z,21.03
2019-01-22T09:05:45.598Z,23.50
2019-01-22T09:08:29.799Z,23.10
2019-01-22T09:11:15.417Z,22.93
2019-01-22T09:13:44.422Z,24.70
2019-01-22T09:16:16.191Z,23.30
2019-01-22T09:18:45.155Z,25.03
2019-01-22T09:21:14.100Z,24.67
2019-01-22T09:23:43.068Z,22.33
2019-01-22T09:26:12.043Z,24.12
2019-01-22T09:28:57.630Z,25.45
2019-01-22T09:31:29.556Z,22.13
2019-01-22T09:34:10.248Z,23.27
2019-01-22T09:36:39.248Z,23.35
2019-01-22T09:39:08.540Z,23.55
2019-01-22T09:41:36.147Z,23.18
2019-01-22T09:44:03.648Z,23.30
2019-01-22T09:46:31.112Z,24.75
2019-01-22T09:48:58.655Z,23.05
2019-01-22T09:51:26.181Z,23.50
2019-01-22T09:53:53.661Z,22.67
2019-01-22T09:56:22.058Z,23.18
2019-01-22T09:58:49.608Z,23.03
2019-01-22T10:01:17.081Z,24.63
2019-01-22T10:03:44.547Z,22.63
2019-01-22T10:06:12.133Z,22.70
2019-01-22T10:08:39.627Z,22.85
2019-01-22T10:11:07.096Z,23.55
2019-01-22T10:13:34.647Z,23.53
2019-01-22T10:16:02.150Z,23.15
2019-01-22T10:18:29.644Z,23.75
2019-01-22T10:20:57.136Z,22.65
2019-01-22T10:23:24.631Z,23.20
2019-01-22T10:25:52.105Z,23.30
2019-01-22T10:28:19.592Z,23.60
2019-01-22T10:30:47.096Z,22.63
2019-01-22T10:33:14.558Z,22.90
2019-01-22T10:35:42.025Z,25.20
2019-01-22T10:38:09.603Z,24.63
2019-01-22T10:40:37.152Z,24.57
2019-01-22T10:43:09.201Z,25.17
2019-01-22T10:45:33.866Z,24.23
2019-01-22T10:48:01.336Z,21.60
2019-01-22T10:50:28.963Z,23.60
2019-01-22T10:52:56.384Z,21.13
2019-01-22T10:55:23.865Z,24.17
2019-01-22T10:57:51.352Z,22.20
2019-01-22T11:00:23.243Z,22.80
2019-01-22T11:02:50.819Z,23.47
2019-01-22T11:05:19.768Z,24.33
2019-01-22T11:07:47.259Z,25.00
2019-01-22T11:10:14.827Z,24.27
2019-01-22T11:12:42.328Z,23.37
2019-01-22T11:15:11.286Z,23.67
2019-01-22T11:17:38.811Z,23.20
2019-01-22T11:20:07.751Z,23.60
2019-01-22T11:22:35.215Z,23.13
2019-01-22T11:25:02.724Z,23.70
2019-01-22T11:27:30.192Z,24.70
2019-01-22T11:29:57.743Z,23.30
2019-01-22T11:32:25.243Z,22.83
2019-01-22T11:34:52.702Z,22.90
2019-01-22T11:37:20.171Z,22.40
2019-01-22T11:39:47.672Z,22.63
2019-01-22T11:42:15.143Z,21.70
2019-01-22T11:44:42.528Z,21.30
2019-01-22T11:47:10.026Z,24.00
2019-01-22T11:49:37.789Z,23.47
2019-01-22T11:52:05.325Z,22.77
2019-01-22T11:54:32.808Z,24.70
2019-01-22T11:57:00.308Z,24.90
2019-01-22T11:59:27.874Z,21.80
2019-01-22T12:01:55.350Z,23.80
2019-01-22T12:04:22.857Z,22.87
2019-01-22T12:06:50.361Z,24.67
2019-01-22T12:09:17.838Z,23.13
2019-01-22T12:11:45.528Z,24.70
2019-01-22T12:14:13.010Z,23.37
2019-01-22T12:16:40.484Z,23.10
2019-01-22T12:19:07.972Z,23.57
2019-01-22T12:21:35.462Z,23.83
2019-01-22T12:24:02.930Z,21.97
2019-01-22T12:26:30.479Z,24.13
2019-01-22T12:28:57.928Z,23.63
2019-01-22T12:31:25.404Z,22.20
2019-01-22T12:33:52.896Z,24.70
2019-01-22T12:36:20.386Z,24.37
2019-01-22T12:38:47.894Z,23.73
2019-01-22T12:41:15.850Z,24.37
2019-01-22T12:43:43.323Z,24.20
2019-01-22T12:46:10.790Z,23.60
2019-01-22T12:48:38.291Z,24.00
2019-01-22T12:51:05.758Z,22.53
2019-01-22T12:53:33.234Z,23.30
2019-01-22T12:56:04.484Z,24.90
2019-01-22T12:58:29.864Z,23.63
2019-01-22T13:00:57.307Z,24.53
2019-01-22T13:03:24.803Z,25.03
2019-01-22T13:05:53.756Z,23.87
2019-01-22T13:08:21.211Z,24.80
2019-01-22T13:10:48.796Z,22.97
2019-01-22T13:13:16.326Z,24.20
2019-01-22T13:15:43.807Z,22.10
2019-01-22T13:18:11.325Z,28.10
2019-01-22T13:20:38.870Z,25.07
2019-01-22T13:23:06.579Z,26.40
2019-01-22T13:25:34.133Z,25.10
2019-01-22T13:28:01.606Z,24.13
2019-01-22T13:30:29.871Z,24.10
2019-01-22T13:32:57.376Z,23.40
2019-01-22T13:35:24.841Z,25.13
2019-01-22T13:37:52.368Z,24.57
2019-01-22T13:40:19.885Z,23.10
2019-01-22T13:42:47.416Z,24.07
2019-01-22T13:45:19.376Z,23.80
2019-01-22T13:47:46.832Z,25.37
2019-01-22T13:50:18.331Z,24.90
2019-01-22T13:52:45.913Z,25.20
2019-01-22T13:55:14.865Z,24.93
2019-01-22T13:57:42.367Z,25.20
2019-01-22T14:00:11.307Z,24.67
2019-01-22T14:02:38.852Z,28.27
2019-01-22T14:05:06.526Z,24.77
2019-01-22T14:07:34.047Z,23.97
2019-01-22T14:10:01.587Z,25.63
2019-01-22T14:12:28.995Z,25.00
2019-01-22T14:14:56.497Z,24.80
2019-01-22T14:17:24.007Z,24.10
2019-01-22T14:19:51.495Z,22.60
2019-01-22T14:22:18.970Z,23.20
2019-01-22T14:24:46.466Z,27.50
2019-01-22T14:27:13.978Z,23.70
2019-01-22T14:29:41.520Z,26.67
2019-01-22T14:32:08.990Z,25.50
2019-01-22T14:34:36.526Z,25.73
2019-01-22T14:37:04.022Z,24.83
2019-01-22T14:39:31.537Z,26.30
2019-01-22T14:41:59.071Z,24.83
2019-01-22T14:44:26.539Z,24.93
2019-01-22T14:46:54.044Z,24.70
2019-01-22T14:49:21.590Z,26.73
2019-01-22T14:51:49.131Z,25.53
2019-01-22T14:54:16.623Z,25.30
2019-01-22T14:56:44.099Z,26.97
2019-01-22T14:59:11.560Z,26.00
2019-01-22T15:01:39.140Z,26.30
2019-01-22T15:04:06.678Z,26.07
2019-01-22T15:06:34.171Z,26.00
2019-01-22T15:09:01.748Z,26.87
2019-01-22T15:11:29.234Z,25.80
2019-01-22T15:13:56.703Z,26.80
2019-01-22T15:16:24.209Z,26.23
2019-01-22T15:18:51.799Z,26.40
2019-01-22T15:21:19.272Z,27.13
2019-01-22T15:23:46.782Z,27.20
2019-01-22T15:26:14.243Z,24.13
2019-01-22T15:28:41.742Z,25.60
2019-01-22T15:31:09.264Z,26.53
2019-01-22T15:33:36.750Z,26.80
2019-01-22T15:36:04.405Z,25.80
2019-01-22T15:38:31.891Z,26.30
2019-01-22T15:40:59.348Z,24.10
2019-01-22T15:43:26.835Z,26.57
2019-01-22T15:45:54.353Z,23.87
2019-01-22T15:48:21.813Z,26.20
2019-01-22T15:50:50.059Z,23.38
2019-01-22T15:53:17.561Z,25.57
2019-01-22T15:55:48.166Z,24.95
2019-01-22T15:58:14.189Z,27.37
2019-01-22T16:00:41.815Z,24.33
2019-01-22T16:03:09.375Z,24.12
2019-01-22T16:05:36.860Z,25.10
2019-01-22T16:08:04.560Z,24.47
2019-01-22T16:10:32.059Z,25.45
2019-01-22T16:12:59.576Z,24.63
2019-01-22T16:15:27.118Z,25.35
2019-01-22T16:17:54.674Z,24.47
2019-01-22T16:20:23.200Z,25.07
2019-01-22T16:22:50.692Z,26.73
2019-01-22T16:25:18.625Z,24.98
2019-01-22T16:27:46.216Z,23.60
2019-01-22T16:30:17.413Z,25.93
2019-01-22T16:32:44.892Z,25.43
2019-01-22T16:35:13.565Z,26.60
2019-01-22T16:37:41.197Z,26.77
2019-01-22T16:40:09.977Z,25.35
2019-01-22T16:42:37.454Z,25.10
2019-01-22T16:45:06.444Z,24.50
2019-01-22T16:47:33.956Z,25.65
2019-01-22T16:50:01.535Z,26.20
2019-01-22T16:52:29.092Z,26.40
2019-01-22T16:54:56.947Z,25.43
2019-01-22T16:57:24.459Z,26.70
2019-01-22T16:59:52.028Z,26.73
2019-01-22T17:02:19.587Z,24.98
2019-01-22T17:04:47.263Z,26.60
2019-01-22T17:07:14.742Z,26.07
2019-01-22T17:09:42.288Z,26.73
2019-01-22T17:12:09.812Z,26.35
2019-01-22T17:14:37.396Z,25.00
2019-01-22T17:17:04.961Z,26.80
2019-01-22T17:19:32.435Z,25.17
2019-01-22T17:21:59.951Z,26.20
2019-01-22T17:24:27.445Z,26.75
2019-01-22T17:26:55.032Z,27.60
2019-01-22T17:29:22.529Z,25.77
2019-01-22T17:31:57.165Z,26.43
2019-01-22T17:34:25.654Z,28.17
2019-01-22T17:36:53.147Z,24.93
2019-01-22T17:39:20.814Z,25.97
2019-01-22T17:41:48.295Z,25.37
2019-01-22T17:44:15.881Z,25.10
2019-01-22T17:46:43.390Z,26.83
2019-01-22T17:49:10.907Z,25.87
2019-01-22T17:51:38.372Z,28.43
2019-01-22T17:54:05.861Z,25.40
2019-01-22T17:56:33.373Z,25.23
2019-01-22T17:59:00.920Z,27.50
2019-01-22T18:01:28.391Z,27.07
2019-01-22T18:03:56.499Z,27.00
2019-01-22T18:06:23.985Z,24.90
2019-01-22T18:08:51.465Z,26.00
2019-01-22T18:11:18.989Z,27.03
2019-01-22T18:13:46.532Z,26.63
2019-01-22T18:16:14.129Z,29.07
2019-01-22T18:18:46.061Z,26.87
2019-01-22T18:21:10.915Z,26.43
2019-01-22T18:23:38.661Z,27.67
2019-01-22T18:26:06.170Z,27.07
2019-01-22T18:28:33.654Z,28.60
2019-01-22T18:31:01.146Z,29.53
2019-01-22T18:33:28.635Z,28.60
2019-01-22T18:35:56.188Z,30.20
2019-01-22T18:38:23.761Z,28.17
2019-01-22T18:40:51.245Z,28.17
2019-01-22T18:43:18.907Z,27.90
2019-01-22T18:45:46.396Z,30.20
2019-01-22T18:48:13.876Z,29.27
2019-01-22T18:50:41.359Z,29.70
2019-01-22T18:53:08.906Z,29.57
2019-01-22T18:55:36.469Z,32.80
2019-01-22T18:58:04.062Z,31.53
2019-01-22T19:00:31.663Z,33.13
2019-01-22T19:02:59.161Z,36.13
2019-01-22T19:05:26.635Z,31.13
2019-01-22T19:07:54.151Z,32.43
2019-01-22T19:10:22.999Z,32.00
2019-01-22T19:12:50.549Z,35.53
2019-01-22T19:15:18.536Z,32.10
2019-01-22T19:17:46.083Z,35.13
2019-01-22T19:20:13.865Z,33.67
2019-01-22T19:22:41.345Z,30.33
2019-01-22T19:25:10.551Z,29.23
2019-01-22T19:27:42.687Z,29.83
2019-01-22T19:30:12.037Z,27.60
2019-01-22T19:32:39.503Z,29.40
2019-01-22T19:35:07.751Z,31.10
2019-01-22T19:37:35.279Z,30.97
2019-01-22T19:40:02.821Z,29.50
2019-01-22T19:42:30.793Z,32.53
2019-01-22T19:44:58.373Z,29.47
2019-01-22T19:47:25.863Z,28.50
2019-01-22T19:49:53.458Z,29.93
2019-01-22T19:52:21.330Z,30.90
2019-01-22T19:54:48.899Z,30.37
2019-01-22T19:57:16.717Z,32.10
2019-01-22T19:59:44.251Z,32.00
2019-01-22T20:02:11.857Z,31.00
2019-01-22T20:04:39.352Z,31.12
2019-01-22T20:07:07.008Z,31.00
2019-01-22T20:09:34.613Z,32.25
2019-01-22T20:12:02.153Z,31.50
2019-01-22T20:14:29.844Z,33.83
2019-01-22T20:16:57.428Z,35.17
2019-01-22T20:19:24.925Z,33.80
2019-01-22T20:21:52.476Z,30.93
2019-01-22T20:24:20.060Z,33.37
2019-01-22T20:26:47.678Z,34.57
2019-01-22T20:29:15.242Z,32.57
2019-01-22T20:31:42.771Z,31.57
2019-01-22T20:34:10.325Z,33.60
2019-01-22T20:36:37.883Z,35.00
2019-01-22T20:39:06.385Z,34.30
2019-01-22T20:41:34.156Z,33.40
2019-01-22T20:44:01.655Z,33.80
2019-01-22T20:46:29.224Z,33.80
2019-01-22T20:48:56.882Z,33.73
2019-01-22T20:51:24.507Z,32.77
2019-01-22T20:53:52.086Z,34.03
2019-01-22T20:56:19.601Z,36.20
2019-01-22T20:58:47.144Z,33.83
2019-01-22T21:01:14.638Z,37.60
2019-01-22T21:03:42.218Z,36.60
2019-01-22T21:06:09.821Z,38.28
2019-01-22T21:08:37.310Z,40.50
2019-01-22T21:11:04.924Z,38.75
2019-01-22T21:13:32.423Z,39.23
2019-01-22T21:15:59.914Z,39.92
2019-01-22T21:18:27.488Z,38.90
2019-01-22T21:20:54.990Z,39.92
2019-01-22T21:23:22.585Z,39.10
2019-01-22T21:25:50.185Z,39.75
2019-01-22T21:28:17.716Z,42.20
2019-01-22T21:30:45.207Z,43.00
2019-01-22T21:33:12.802Z,41.13
2019-01-22T21:35:40.301Z,40.65
2019-01-22T21:38:08.186Z,41.20
2019-01-22T21:40:35.798Z,38.25
2019-01-22T21:43:03.373Z,41.10
2019-01-22T21:45:30.926Z,41.98
2019-01-22T21:47:58.595Z,38.55
2019-01-22T21:50:26.439Z,40.65
2019-01-22T21:52:53.952Z,42.48
2019-01-22T21:55:24.652Z,40.90
2019-01-22T21:57:52.478Z,40.15
2019-01-22T22:00:21.475Z,41.60
2019-01-22T22:02:48.966Z,43.45
2019-01-22T22:05:17.425Z,42.95
2019-01-22T22:07:45.009Z,43.10
2019-01-22T22:10:14.041Z,43.65
2019-01-22T22:12:41.627Z,39.67
2019-01-22T22:15:10.651Z,43.80
2019-01-22T22:17:38.248Z,41.13
2019-01-22T22:20:07.265Z,44.98
2019-01-22T22:22:34.842Z,40.00
2019-01-22T22:25:02.421Z,44.80
2019-01-22T22:27:29.978Z,42.83
2019-01-22T22:29:57.482Z,42.93
2019-01-22T22:32:24.962Z,42.93
2019-01-22T22:34:52.493Z,43.73
2019-01-22T22:37:19.969Z,44.03
2019-01-22T22:39:47.537Z,44.95
2019-01-22T22:42:15.071Z,43.02
2019-01-22T22:44:42.538Z,43.70
2019-01-22T22:47:10.019Z,42.27
2019-01-22T22:49:37.904Z,45.05
2019-01-22T22:52:05.420Z,44.08
2019-01-22T22:54:32.954Z,45.23
2019-01-22T22:57:00.537Z,44.23
2019-01-22T22:59:28.038Z,43.78
2019-01-22T23:01:55.581Z,42.88
2019-01-22T23:04:23.100Z,42.17
2019-01-22T23:06:50.580Z,41.30
2019-01-22T23:09:18.150Z,43.15
2019-01-22T23:11:45.737Z,43.65
2019-01-22T23:14:13.220Z,42.43
2019-01-22T23:16:40.703Z,44.38
2019-01-22T23:19:08.321Z,42.88
2019-01-22T23:21:35.941Z,44.90
2019-01-22T23:24:03.574Z,42.40
2019-01-22T23:26:31.082Z,41.33
2019-01-22T23:28:58.572Z,41.45
2019-01-22T23:31:26.143Z,43.17
2019-01-22T23:33:53.643Z,41.20
2019-01-22T23:36:21.130Z,43.78
2019-01-22T23:38:48.656Z,43.43
2019-01-22T23:41:16.177Z,40.50
2019-01-22T23:43:43.725Z,43.40
2019-01-22T23:46:11.201Z,43.68
2019-01-22T23:48:38.794Z,42.62
2019-01-22T23:51:06.382Z,43.50
2019-01-22T23:53:34.048Z,42.45
2019-01-22T23:56:01.583Z,40.17
2019-01-22T23:58:29.095Z,42.55
